sensor_id;sensor_type;location;lat;lon;timestamp;P1;durP1;ratioP1;P2;durP2;ratioP2
12535;SDS011;6334;48.696;2.114;2022-09-16T00:00:47;3.77;;;2.90;;
12535;SDS011;6334;48.696;2.114;2022-09-16T00:03:18;4.83;;;3.10;;
12535;SDS011;6334;48.696;2.114;2022-09-16T00:05:49;2.90;;;2.40;;
12535;SDS011;6334;48.696;2.114;2022-09-16T00:08:19;5.03;;;3.10;;
12535;SDS011;6334;48.696;2.114;2022-09-16T00:10:49;3.73;;;2.60;;
12535;SDS011;6334;48.696;2.114;2022-09-16T00:13:21;2.47;;;2.27;;
12535;SDS011;6334;48.696;2.114;2022-09-16T00:15:51;2.53;;;2.33;;
12535;SDS011;6334;48.696;2.114;2022-09-16T00:18:23;3.83;;;2.80;;
12535;SDS011;6334;48.696;2.114;2022-09-16T00:20:53;3.57;;;2.80;;
12535;SDS011;6334;48.696;2.114;2022-09-16T00:23:25;2.37;;;2.27;;
12535;SDS011;6334;48.696;2.114;2022-09-16T00:25:57;3.53;;;2.67;;
12535;SDS011;6334;48.696;2.114;2022-09-16T00:28:27;2.57;;;2.37;;
12535;SDS011;6334;48.696;2.114;2022-09-16T00:31:01;3.20;;;2.90;;
12535;SDS011;6334;48.696;2.114;2022-09-16T00:33:28;2.77;;;2.57;;
12535;SDS011;6334;48.696;2.114;2022-09-16T00:36:10;4.10;;;3.00;;
12535;SDS011;6334;48.696;2.114;2022-09-16T00:38:41;2.90;;;2.60;;
12535;SDS011;6334;48.696;2.114;2022-09-16T00:41:14;3.73;;;2.80;;
12535;SDS011;6334;48.696;2.114;2022-09-16T00:49:09;5.57;;;3.20;;
12535;SDS011;6334;48.696;2.114;2022-09-16T00:51:35;3.03;;;2.77;;
12535;SDS011;6334;48.696;2.114;2022-09-16T00:54:06;3.57;;;2.80;;
12535;SDS011;6334;48.696;2.114;2022-09-16T00:56:38;4.53;;;3.03;;
12535;SDS011;6334;48.696;2.114;2022-09-16T00:59:10;5.20;;;3.17;;
12535;SDS011;6334;48.696;2.114;2022-09-16T01:01:40;3.00;;;2.80;;
12535;SDS011;6334;48.696;2.114;2022-09-16T01:04:14;3.57;;;3.10;;
12535;SDS011;6334;48.696;2.114;2022-09-16T01:06:44;4.50;;;3.30;;
12535;SDS011;6334;48.696;2.114;2022-09-16T01:09:15;3.00;;;2.70;;
12535;SDS011;6334;48.696;2.114;2022-09-16T01:11:45;2.80;;;2.53;;
12535;SDS011;6334;48.696;2.114;2022-09-16T01:14:16;3.33;;;2.70;;
12535;SDS011;6334;48.696;2.114;2022-09-16T01:17:07;3.90;;;2.90;;
12535;SDS011;6334;48.696;2.114;2022-09-16T01:22:37;3.13;;;2.83;;
12535;SDS011;6334;48.696;2.114;2022-09-16T01:36:47;3.20;;;2.90;;
12535;SDS011;6334;48.696;2.114;2022-09-16T01:38:59;3.00;;;2.70;;
12535;SDS011;6334;48.696;2.114;2022-09-16T01:44:01;2.93;;;2.73;;
12535;SDS011;6334;48.696;2.114;2022-09-16T01:46:50;3.40;;;3.10;;
12535;SDS011;6334;48.696;2.114;2022-09-16T01:49:19;3.63;;;3.03;;
12535;SDS011;6334;48.696;2.114;2022-09-16T01:54:40;4.33;;;3.17;;
12535;SDS011;6334;48.696;2.114;2022-09-16T01:57:14;2.93;;;2.73;;
12535;SDS011;6334;48.696;2.114;2022-09-16T01:59:56;3.17;;;2.77;;
12535;SDS011;6334;48.696;2.114;2022-09-16T02:02:23;4.77;;;2.97;;
12535;SDS011;6334;48.696;2.114;2022-09-16T02:04:55;3.63;;;3.30;;
12535;SDS011;6334;48.696;2.114;2022-09-16T02:07:26;3.20;;;2.87;;
12535;SDS011;6334;48.696;2.114;2022-09-16T02:09:56;3.30;;;3.00;;
12535;SDS011;6334;48.696;2.114;2022-09-16T02:12:28;4.80;;;3.50;;
12535;SDS011;6334;48.696;2.114;2022-09-16T02:14:58;3.87;;;3.20;;
12535;SDS011;6334;48.696;2.114;2022-09-16T02:17:26;5.00;;;3.23;;
12535;SDS011;6334;48.696;2.114;2022-09-16T02:20:02;3.77;;;3.37;;
12535;SDS011;6334;48.696;2.114;2022-09-16T02:22:41;4.60;;;3.23;;
12535;SDS011;6334;48.696;2.114;2022-09-16T02:25:15;5.17;;;3.20;;
12535;SDS011;6334;48.696;2.114;2022-09-16T02:27:46;5.13;;;3.30;;
12535;SDS011;6334;48.696;2.114;2022-09-16T02:30:17;6.43;;;3.37;;
12535;SDS011;6334;48.696;2.114;2022-09-16T02:32:50;4.93;;;3.57;;
12535;SDS011;6334;48.696;2.114;2022-09-16T02:35:19;4.40;;;3.30;;
12535;SDS011;6334;48.696;2.114;2022-09-16T02:40:24;6.33;;;3.93;;
12535;SDS011;6334;48.696;2.114;2022-09-16T02:42:56;3.60;;;3.30;;
12535;SDS011;6334;48.696;2.114;2022-09-16T02:45:46;4.93;;;3.37;;
12535;SDS011;6334;48.696;2.114;2022-09-16T02:54:23;5.00;;;3.57;;
12535;SDS011;6334;48.696;2.114;2022-09-16T02:56:54;5.10;;;3.60;;
12535;SDS011;6334;48.696;2.114;2022-09-16T02:59:24;5.00;;;3.30;;
12535;SDS011;6334;48.696;2.114;2022-09-16T03:01:55;5.00;;;3.40;;
12535;SDS011;6334;48.696;2.114;2022-09-16T03:04:25;4.90;;;3.37;;
12535;SDS011;6334;48.696;2.114;2022-09-16T03:06:56;4.70;;;3.53;;
12535;SDS011;6334;48.696;2.114;2022-09-16T03:09:26;4.40;;;3.60;;
12535;SDS011;6334;48.696;2.114;2022-09-16T03:20:06;6.53;;;3.70;;
12535;SDS011;6334;48.696;2.114;2022-09-16T03:22:54;4.90;;;3.77;;
12535;SDS011;6334;48.696;2.114;2022-09-16T03:25:32;6.93;;;3.67;;
12535;SDS011;6334;48.696;2.114;2022-09-16T03:28:07;5.10;;;3.60;;
12535;SDS011;6334;48.696;2.114;2022-09-16T03:30:37;4.30;;;3.40;;
12535;SDS011;6334;48.696;2.114;2022-09-16T03:33:10;4.97;;;3.80;;
12535;SDS011;6334;48.696;2.114;2022-09-16T03:35:41;4.83;;;3.40;;
12535;SDS011;6334;48.696;2.114;2022-09-16T03:38:10;5.00;;;3.57;;
12535;SDS011;6334;48.696;2.114;2022-09-16T03:40:41;7.43;;;4.20;;
12535;SDS011;6334;48.696;2.114;2022-09-16T03:43:11;4.03;;;3.67;;
12535;SDS011;6334;48.696;2.114;2022-09-16T03:45:42;6.47;;;3.80;;
12535;SDS011;6334;48.696;2.114;2022-09-16T03:48:12;5.00;;;3.53;;
12535;SDS011;6334;48.696;2.114;2022-09-16T03:50:44;8.20;;;3.80;;
12535;SDS011;6334;48.696;2.114;2022-09-16T03:53:14;4.60;;;3.23;;
12535;SDS011;6334;48.696;2.114;2022-09-16T03:55:47;5.57;;;3.50;;
12535;SDS011;6334;48.696;2.114;2022-09-16T03:58:15;6.43;;;3.40;;
12535;SDS011;6334;48.696;2.114;2022-09-16T04:00:48;4.80;;;3.50;;
12535;SDS011;6334;48.696;2.114;2022-09-16T04:03:19;6.20;;;3.50;;
12535;SDS011;6334;48.696;2.114;2022-09-16T04:05:52;5.73;;;3.40;;
12535;SDS011;6334;48.696;2.114;2022-09-16T04:08:22;6.03;;;3.50;;
12535;SDS011;6334;48.696;2.114;2022-09-16T04:10:56;6.70;;;3.60;;
12535;SDS011;6334;48.696;2.114;2022-09-16T04:13:30;6.87;;;3.63;;
12535;SDS011;6334;48.696;2.114;2022-09-16T04:16:01;5.23;;;3.50;;
12535;SDS011;6334;48.696;2.114;2022-09-16T04:18:31;3.90;;;3.40;;
12535;SDS011;6334;48.696;2.114;2022-09-16T04:21:01;4.90;;;3.43;;
12535;SDS011;6334;48.696;2.114;2022-09-16T04:23:31;4.90;;;3.17;;
12535;SDS011;6334;48.696;2.114;2022-09-16T04:26:02;5.87;;;3.37;;
12535;SDS011;6334;48.696;2.114;2022-09-16T04:28:32;4.83;;;3.50;;
12535;SDS011;6334;48.696;2.114;2022-09-16T04:31:03;5.50;;;3.70;;
12535;SDS011;6334;48.696;2.114;2022-09-16T04:33:33;4.47;;;3.17;;
12535;SDS011;6334;48.696;2.114;2022-09-16T04:36:04;4.80;;;3.23;;
12535;SDS011;6334;48.696;2.114;2022-09-16T04:38:37;7.37;;;3.47;;
12535;SDS011;6334;48.696;2.114;2022-09-16T04:41:08;5.10;;;3.60;;
12535;SDS011;6334;48.696;2.114;2022-09-16T04:43:38;5.13;;;3.43;;
12535;SDS011;6334;48.696;2.114;2022-09-16T04:46:08;6.20;;;3.47;;
12535;SDS011;6334;48.696;2.114;2022-09-16T04:48:39;4.13;;;3.60;;
12535;SDS011;6334;48.696;2.114;2022-09-16T04:51:10;4.37;;;3.40;;
12535;SDS011;6334;48.696;2.114;2022-09-16T04:53:40;5.03;;;3.40;;
12535;SDS011;6334;48.696;2.114;2022-09-16T04:58:45;5.80;;;3.47;;
12535;SDS011;6334;48.696;2.114;2022-09-16T05:01:16;6.63;;;3.80;;
12535;SDS011;6334;48.696;2.114;2022-09-16T05:03:46;3.50;;;3.10;;
12535;SDS011;6334;48.696;2.114;2022-09-16T05:06:16;4.43;;;3.37;;
12535;SDS011;6334;48.696;2.114;2022-09-16T05:08:46;5.90;;;3.60;;
12535;SDS011;6334;48.696;2.114;2022-09-16T05:11:17;5.93;;;3.77;;
12535;SDS011;6334;48.696;2.114;2022-09-16T05:13:47;5.80;;;3.60;;
12535;SDS011;6334;48.696;2.114;2022-09-16T05:16:18;5.23;;;3.73;;
12535;SDS011;6334;48.696;2.114;2022-09-16T05:18:48;4.97;;;3.27;;
12535;SDS011;6334;48.696;2.114;2022-09-16T05:21:19;5.23;;;3.30;;
12535;SDS011;6334;48.696;2.114;2022-09-16T05:23:49;5.77;;;3.73;;
12535;SDS011;6334;48.696;2.114;2022-09-16T05:26:20;5.50;;;3.50;;
12535;SDS011;6334;48.696;2.114;2022-09-16T05:28:50;5.73;;;3.20;;
12535;SDS011;6334;48.696;2.114;2022-09-16T05:31:23;6.37;;;3.50;;
12535;SDS011;6334;48.696;2.114;2022-09-16T05:33:57;6.97;;;3.73;;
12535;SDS011;6334;48.696;2.114;2022-09-16T05:36:30;6.57;;;3.70;;
12535;SDS011;6334;48.696;2.114;2022-09-16T05:39:00;6.20;;;3.40;;
12535;SDS011;6334;48.696;2.114;2022-09-16T05:41:30;3.10;;;2.80;;
12535;SDS011;6334;48.696;2.114;2022-09-16T05:44:00;7.93;;;4.60;;
12535;SDS011;6334;48.696;2.114;2022-09-16T05:46:31;8.80;;;4.20;;
12535;SDS011;6334;48.696;2.114;2022-09-16T05:49:01;5.00;;;3.83;;
12535;SDS011;6334;48.696;2.114;2022-09-16T05:51:32;5.00;;;3.20;;
12535;SDS011;6334;48.696;2.114;2022-09-16T05:54:04;5.90;;;3.70;;
12535;SDS011;6334;48.696;2.114;2022-09-16T05:56:34;5.20;;;3.70;;
12535;SDS011;6334;48.696;2.114;2022-09-16T05:59:05;8.90;;;3.80;;
12535;SDS011;6334;48.696;2.114;2022-09-16T06:01:35;3.47;;;3.27;;
12535;SDS011;6334;48.696;2.114;2022-09-16T06:04:06;4.77;;;3.57;;
12535;SDS011;6334;48.696;2.114;2022-09-16T06:06:37;4.00;;;3.57;;
12535;SDS011;6334;48.696;2.114;2022-09-16T06:09:08;5.33;;;3.50;;
12535;SDS011;6334;48.696;2.114;2022-09-16T06:11:41;5.33;;;3.50;;
12535;SDS011;6334;48.696;2.114;2022-09-16T06:14:10;4.50;;;3.30;;
12535;SDS011;6334;48.696;2.114;2022-09-16T06:16:40;5.80;;;3.80;;
12535;SDS011;6334;48.696;2.114;2022-09-16T06:19:12;4.70;;;3.70;;
12535;SDS011;6334;48.696;2.114;2022-09-16T06:21:44;5.50;;;3.70;;
12535;SDS011;6334;48.696;2.114;2022-09-16T06:24:15;7.83;;;3.90;;
12535;SDS011;6334;48.696;2.114;2022-09-16T06:26:45;5.77;;;3.87;;
12535;SDS011;6334;48.696;2.114;2022-09-16T06:29:15;4.70;;;3.50;;
12535;SDS011;6334;48.696;2.114;2022-09-16T06:31:46;6.53;;;4.13;;
12535;SDS011;6334;48.696;2.114;2022-09-16T06:34:17;7.30;;;3.83;;
12535;SDS011;6334;48.696;2.114;2022-09-16T06:36:48;5.70;;;3.73;;
12535;SDS011;6334;48.696;2.114;2022-09-16T06:39:18;5.73;;;3.80;;
12535;SDS011;6334;48.696;2.114;2022-09-16T06:41:49;7.47;;;4.00;;
12535;SDS011;6334;48.696;2.114;2022-09-16T06:44:19;5.27;;;3.90;;
12535;SDS011;6334;48.696;2.114;2022-09-16T06:46:50;7.13;;;3.80;;
12535;SDS011;6334;48.696;2.114;2022-09-16T06:49:20;3.77;;;3.40;;
12535;SDS011;6334;48.696;2.114;2022-09-16T06:51:50;5.77;;;3.50;;
12535;SDS011;6334;48.696;2.114;2022-09-16T06:54:21;5.33;;;3.80;;
12535;SDS011;6334;48.696;2.114;2022-09-16T06:56:51;7.03;;;4.10;;
12535;SDS011;6334;48.696;2.114;2022-09-16T06:59:22;5.90;;;3.80;;
12535;SDS011;6334;48.696;2.114;2022-09-16T07:01:52;6.37;;;4.47;;
12535;SDS011;6334;48.696;2.114;2022-09-16T07:04:23;7.10;;;4.00;;
12535;SDS011;6334;48.696;2.114;2022-09-16T07:06:53;4.80;;;3.90;;
12535;SDS011;6334;48.696;2.114;2022-09-16T07:09:24;5.87;;;4.07;;
12535;SDS011;6334;48.696;2.114;2022-09-16T07:11:54;7.00;;;4.40;;
12535;SDS011;6334;48.696;2.114;2022-09-16T07:14:27;5.80;;;4.00;;
12535;SDS011;6334;48.696;2.114;2022-09-16T07:17:00;4.33;;;3.80;;
12535;SDS011;6334;48.696;2.114;2022-09-16T07:19:31;6.30;;;4.47;;
12535;SDS011;6334;48.696;2.114;2022-09-16T07:22:01;6.23;;;4.40;;
12535;SDS011;6334;48.696;2.114;2022-09-16T07:24:33;4.90;;;3.83;;
12535;SDS011;6334;48.696;2.114;2022-09-16T07:27:04;7.47;;;4.17;;
12535;SDS011;6334;48.696;2.114;2022-09-16T07:29:34;5.67;;;4.37;;
12535;SDS011;6334;48.696;2.114;2022-09-16T07:32:05;9.03;;;4.90;;
12535;SDS011;6334;48.696;2.114;2022-09-16T07:34:35;6.27;;;4.40;;
12535;SDS011;6334;48.696;2.114;2022-09-16T07:37:06;6.97;;;4.37;;
12535;SDS011;6334;48.696;2.114;2022-09-16T07:39:36;6.90;;;4.43;;
12535;SDS011;6334;48.696;2.114;2022-09-16T07:42:07;8.57;;;4.30;;
12535;SDS011;6334;48.696;2.114;2022-09-16T07:44:37;7.83;;;4.50;;
12535;SDS011;6334;48.696;2.114;2022-09-16T07:47:08;11.30;;;4.50;;
12535;SDS011;6334;48.696;2.114;2022-09-16T07:49:38;9.67;;;4.97;;
12535;SDS011;6334;48.696;2.114;2022-09-16T07:52:08;6.47;;;4.43;;
12535;SDS011;6334;48.696;2.114;2022-09-16T07:54:40;6.50;;;4.43;;
12535;SDS011;6334;48.696;2.114;2022-09-16T07:57:10;8.80;;;4.77;;
12535;SDS011;6334;48.696;2.114;2022-09-16T07:59:41;8.63;;;4.83;;
12535;SDS011;6334;48.696;2.114;2022-09-16T08:02:11;6.97;;;4.90;;
12535;SDS011;6334;48.696;2.114;2022-09-16T08:04:42;8.90;;;5.10;;
12535;SDS011;6334;48.696;2.114;2022-09-16T08:07:14;6.63;;;5.03;;
12535;SDS011;6334;48.696;2.114;2022-09-16T08:09:44;7.30;;;4.80;;
12535;SDS011;6334;48.696;2.114;2022-09-16T08:12:15;8.10;;;5.23;;
12535;SDS011;6334;48.696;2.114;2022-09-16T08:14:45;7.87;;;4.80;;
12535;SDS011;6334;48.696;2.114;2022-09-16T08:17:15;8.70;;;5.27;;
12535;SDS011;6334;48.696;2.114;2022-09-16T08:19:46;12.97;;;6.47;;
12535;SDS011;6334;48.696;2.114;2022-09-16T08:22:16;12.53;;;6.93;;
12535;SDS011;6334;48.696;2.114;2022-09-16T08:24:47;14.03;;;8.10;;
12535;SDS011;6334;48.696;2.114;2022-09-16T08:27:17;12.17;;;7.57;;
12535;SDS011;6334;48.696;2.114;2022-09-16T08:29:48;14.23;;;7.03;;
12535;SDS011;6334;48.696;2.114;2022-09-16T08:32:18;11.33;;;6.40;;
12535;SDS011;6334;48.696;2.114;2022-09-16T08:34:49;12.90;;;6.40;;
12535;SDS011;6334;48.696;2.114;2022-09-16T08:37:19;9.53;;;5.67;;
12535;SDS011;6334;48.696;2.114;2022-09-16T08:39:50;8.80;;;4.83;;
12535;SDS011;6334;48.696;2.114;2022-09-16T08:50:29;4.67;;;3.93;;
12535;SDS011;6334;48.696;2.114;2022-09-16T08:53:01;6.27;;;4.23;;
12535;SDS011;6334;48.696;2.114;2022-09-16T08:55:36;8.27;;;3.80;;
12535;SDS011;6334;48.696;2.114;2022-09-16T08:58:12;7.30;;;3.37;;
12535;SDS011;6334;48.696;2.114;2022-09-16T09:00:41;7.03;;;3.87;;
12535;SDS011;6334;48.696;2.114;2022-09-16T09:06:13;5.07;;;3.43;;
12535;SDS011;6334;48.696;2.114;2022-09-16T09:11:37;5.47;;;3.10;;
12535;SDS011;6334;48.696;2.114;2022-09-16T09:14:34;5.13;;;3.07;;
12535;SDS011;6334;48.696;2.114;2022-09-16T09:17:22;8.23;;;3.43;;
12535;SDS011;6334;48.696;2.114;2022-09-16T09:19:58;8.13;;;3.40;;
12535;SDS011;6334;48.696;2.114;2022-09-16T09:25:20;6.67;;;3.10;;
12535;SDS011;6334;48.696;2.114;2022-09-16T09:28:04;4.57;;;3.27;;
12535;SDS011;6334;48.696;2.114;2022-09-16T09:30:22;7.27;;;3.03;;
12535;SDS011;6334;48.696;2.114;2022-09-16T09:38:51;5.37;;;2.97;;
12535;SDS011;6334;48.696;2.114;2022-09-16T09:41:40;4.27;;;2.90;;
12535;SDS011;6334;48.696;2.114;2022-09-16T09:46:57;3.53;;;2.57;;
12535;SDS011;6334;48.696;2.114;2022-09-16T09:49:30;4.83;;;2.93;;
12535;SDS011;6334;48.696;2.114;2022-09-16T09:54:36;3.77;;;2.57;;
12535;SDS011;6334;48.696;2.114;2022-09-16T09:57:10;6.67;;;3.17;;
12535;SDS011;6334;48.696;2.114;2022-09-16T09:59:44;5.50;;;2.80;;
12535;SDS011;6334;48.696;2.114;2022-09-16T10:02:27;5.27;;;3.00;;
12535;SDS011;6334;48.696;2.114;2022-09-16T10:04:58;2.83;;;2.53;;
12535;SDS011;6334;48.696;2.114;2022-09-16T10:07:28;4.47;;;2.80;;
12535;SDS011;6334;48.696;2.114;2022-09-16T10:10:03;4.67;;;2.47;;
12535;SDS011;6334;48.696;2.114;2022-09-16T10:12:34;4.20;;;2.03;;
12535;SDS011;6334;48.696;2.114;2022-09-16T10:15:05;2.87;;;1.90;;
12535;SDS011;6334;48.696;2.114;2022-09-16T10:17:35;3.03;;;1.93;;
12535;SDS011;6334;48.696;2.114;2022-09-16T10:20:20;3.43;;;2.17;;
12535;SDS011;6334;48.696;2.114;2022-09-16T10:22:36;3.00;;;2.00;;
12535;SDS011;6334;48.696;2.114;2022-09-16T10:25:20;1.93;;;1.77;;
12535;SDS011;6334;48.696;2.114;2022-09-16T10:27:56;4.87;;;2.13;;
12535;SDS011;6334;48.696;2.114;2022-09-16T10:30:28;3.77;;;2.20;;
12535;SDS011;6334;48.696;2.114;2022-09-16T10:33:02;3.43;;;1.63;;
12535;SDS011;6334;48.696;2.114;2022-09-16T10:35:36;3.00;;;1.90;;
12535;SDS011;6334;48.696;2.114;2022-09-16T10:40:56;2.93;;;1.37;;
12535;SDS011;6334;48.696;2.114;2022-09-16T10:43:25;3.13;;;1.73;;
12535;SDS011;6334;48.696;2.114;2022-09-16T10:45:55;3.17;;;1.80;;
12535;SDS011;6334;48.696;2.114;2022-09-16T10:48:26;8.30;;;2.20;;
12535;SDS011;6334;48.696;2.114;2022-09-16T10:50:59;3.07;;;1.80;;
12535;SDS011;6334;48.696;2.114;2022-09-16T10:53:32;2.17;;;2.03;;
12535;SDS011;6334;48.696;2.114;2022-09-16T10:56:05;3.47;;;1.40;;
12535;SDS011;6334;48.696;2.114;2022-09-16T10:58:33;2.77;;;2.07;;
12535;SDS011;6334;48.696;2.114;2022-09-16T11:01:17;1.77;;;1.60;;
12535;SDS011;6334;48.696;2.114;2022-09-16T11:06:41;3.10;;;1.93;;
12535;SDS011;6334;48.696;2.114;2022-09-16T11:09:24;2.67;;;2.10;;
12535;SDS011;6334;48.696;2.114;2022-09-16T11:14:29;2.90;;;1.67;;
12535;SDS011;6334;48.696;2.114;2022-09-16T11:19:55;5.90;;;2.20;;
12535;SDS011;6334;48.696;2.114;2022-09-16T11:25:27;1.87;;;1.70;;
12535;SDS011;6334;48.696;2.114;2022-09-16T11:30:54;2.67;;;1.80;;
12535;SDS011;6334;48.696;2.114;2022-09-16T11:39:00;1.57;;;1.47;;
12535;SDS011;6334;48.696;2.114;2022-09-16T11:44:29;4.50;;;2.07;;
12535;SDS011;6334;48.696;2.114;2022-09-16T11:47:07;2.00;;;1.70;;
12535;SDS011;6334;48.696;2.114;2022-09-16T11:49:36;4.00;;;1.70;;
12535;SDS011;6334;48.696;2.114;2022-09-16T11:52:19;2.77;;;1.97;;
12535;SDS011;6334;48.696;2.114;2022-09-16T11:57:43;2.73;;;1.73;;
12535;SDS011;6334;48.696;2.114;2022-09-16T12:00:12;2.47;;;1.53;;
12535;SDS011;6334;48.696;2.114;2022-09-16T12:02:53;2.17;;;1.70;;
12535;SDS011;6334;48.696;2.114;2022-09-16T12:05:42;2.00;;;1.87;;
12535;SDS011;6334;48.696;2.114;2022-09-16T12:08:15;1.67;;;1.57;;
12535;SDS011;6334;48.696;2.114;2022-09-16T12:10:45;3.10;;;2.00;;
12535;SDS011;6334;48.696;2.114;2022-09-16T12:13:15;2.17;;;1.80;;
12535;SDS011;6334;48.696;2.114;2022-09-16T12:15:56;3.03;;;1.70;;
12535;SDS011;6334;48.696;2.114;2022-09-16T12:18:35;2.57;;;2.10;;
12535;SDS011;6334;48.696;2.114;2022-09-16T12:21:08;3.13;;;1.40;;
12535;SDS011;6334;48.696;2.114;2022-09-16T12:23:44;5.23;;;2.53;;
12535;SDS011;6334;48.696;2.114;2022-09-16T12:26:15;2.23;;;1.50;;
12535;SDS011;6334;48.696;2.114;2022-09-16T12:29:14;3.23;;;2.03;;
12535;SDS011;6334;48.696;2.114;2022-09-16T12:31:54;3.07;;;2.00;;
12535;SDS011;6334;48.696;2.114;2022-09-16T12:34:25;1.90;;;1.57;;
12535;SDS011;6334;48.696;2.114;2022-09-16T12:37:02;3.93;;;1.80;;
12535;SDS011;6334;48.696;2.114;2022-09-16T12:39:27;2.37;;;1.60;;
12535;SDS011;6334;48.696;2.114;2022-09-16T12:42:05;3.40;;;1.80;;
12535;SDS011;6334;48.696;2.114;2022-09-16T12:50:00;1.57;;;1.40;;
12535;SDS011;6334;48.696;2.114;2022-09-16T12:53:06;2.97;;;1.97;;
12535;SDS011;6334;48.696;2.114;2022-09-16T12:55:55;1.53;;;1.43;;
12535;SDS011;6334;48.696;2.114;2022-09-16T13:01:30;2.50;;;1.60;;
12535;SDS011;6334;48.696;2.114;2022-09-16T13:04:02;1.83;;;1.40;;
12535;SDS011;6334;48.696;2.114;2022-09-16T13:06:31;2.20;;;1.80;;
12535;SDS011;6334;48.696;2.114;2022-09-16T13:11:55;2.83;;;1.57;;
12535;SDS011;6334;48.696;2.114;2022-09-16T13:14:31;2.40;;;1.60;;
12535;SDS011;6334;48.696;2.114;2022-09-16T13:17:00;2.00;;;1.40;;
12535;SDS011;6334;48.696;2.114;2022-09-16T13:19:48;2.30;;;1.53;;
12535;SDS011;6334;48.696;2.114;2022-09-16T13:27:58;4.40;;;1.83;;
12535;SDS011;6334;48.696;2.114;2022-09-16T13:35:39;1.87;;;1.50;;
12535;SDS011;6334;48.696;2.114;2022-09-16T13:40:55;1.97;;;1.70;;
12535;SDS011;6334;48.696;2.114;2022-09-16T13:43:30;1.80;;;1.20;;
12535;SDS011;6334;48.696;2.114;2022-09-16T13:48:44;2.57;;;1.57;;
12535;SDS011;6334;48.696;2.114;2022-09-16T13:51:18;4.63;;;2.00;;
12535;SDS011;6334;48.696;2.114;2022-09-16T13:53:48;2.03;;;1.60;;
12535;SDS011;6334;48.696;2.114;2022-09-16T13:56:40;4.07;;;1.93;;
12535;SDS011;6334;48.696;2.114;2022-09-16T13:59:44;1.23;;;1.13;;
12535;SDS011;6334;48.696;2.114;2022-09-16T14:02:14;3.23;;;1.53;;
12535;SDS011;6334;48.696;2.114;2022-09-16T14:05:08;1.90;;;1.50;;
12535;SDS011;6334;48.696;2.114;2022-09-16T14:10:39;2.30;;;2.00;;
12535;SDS011;6334;48.696;2.114;2022-09-16T14:13:17;2.77;;;1.87;;
12535;SDS011;6334;48.696;2.114;2022-09-16T14:15:48;3.33;;;2.10;;
12535;SDS011;6334;48.696;2.114;2022-09-16T14:18:23;2.20;;;2.00;;
12535;SDS011;6334;48.696;2.114;2022-09-16T14:20:53;1.73;;;1.63;;
12535;SDS011;6334;48.696;2.114;2022-09-16T14:23:31;3.27;;;1.30;;
12535;SDS011;6334;48.696;2.114;2022-09-16T14:26:15;3.43;;;1.80;;
12535;SDS011;6334;48.696;2.114;2022-09-16T14:28:43;2.90;;;1.97;;
12535;SDS011;6334;48.696;2.114;2022-09-16T14:31:15;5.40;;;2.20;;
12535;SDS011;6334;48.696;2.114;2022-09-16T14:33:45;3.03;;;2.13;;
12535;SDS011;6334;48.696;2.114;2022-09-16T14:36:18;2.17;;;1.60;;
12535;SDS011;6334;48.696;2.114;2022-09-16T14:38:49;3.33;;;1.70;;
12535;SDS011;6334;48.696;2.114;2022-09-16T14:41:33;3.13;;;1.57;;
12535;SDS011;6334;48.696;2.114;2022-09-16T14:44:08;1.37;;;1.30;;
12535;SDS011;6334;48.696;2.114;2022-09-16T14:46:40;2.63;;;1.37;;
12535;SDS011;6334;48.696;2.114;2022-09-16T14:49:10;3.10;;;1.73;;
12535;SDS011;6334;48.696;2.114;2022-09-16T14:51:43;2.47;;;1.57;;
12535;SDS011;6334;48.696;2.114;2022-09-16T14:54:17;1.87;;;1.37;;
12535;SDS011;6334;48.696;2.114;2022-09-16T14:57:22;1.73;;;1.57;;
12535;SDS011;6334;48.696;2.114;2022-09-16T14:59:27;2.70;;;1.63;;
12535;SDS011;6334;48.696;2.114;2022-09-16T15:01:58;1.63;;;1.53;;
12535;SDS011;6334;48.696;2.114;2022-09-16T15:04:30;1.73;;;1.47;;
12535;SDS011;6334;48.696;2.114;2022-09-16T15:07:03;1.50;;;1.40;;
12535;SDS011;6334;48.696;2.114;2022-09-16T15:09:34;6.10;;;2.20;;
12535;SDS011;6334;48.696;2.114;2022-09-16T15:12:23;1.70;;;1.60;;
12535;SDS011;6334;48.696;2.114;2022-09-16T15:14:47;1.83;;;1.73;;
12535;SDS011;6334;48.696;2.114;2022-09-16T15:17:18;1.80;;;1.63;;
12535;SDS011;6334;48.696;2.114;2022-09-16T15:19:53;3.30;;;2.23;;
12535;SDS011;6334;48.696;2.114;2022-09-16T15:22:27;2.83;;;1.53;;
12535;SDS011;6334;48.696;2.114;2022-09-16T15:24:57;2.80;;;1.87;;
12535;SDS011;6334;48.696;2.114;2022-09-16T15:27:28;3.07;;;2.00;;
12535;SDS011;6334;48.696;2.114;2022-09-16T15:29:59;3.50;;;1.60;;
12535;SDS011;6334;48.696;2.114;2022-09-16T15:32:30;1.93;;;1.70;;
12535;SDS011;6334;48.696;2.114;2022-09-16T15:35:10;2.87;;;1.80;;
12535;SDS011;6334;48.696;2.114;2022-09-16T15:37:33;1.67;;;1.57;;
12535;SDS011;6334;48.696;2.114;2022-09-16T15:40:17;3.50;;;1.80;;
12535;SDS011;6334;48.696;2.114;2022-09-16T15:42:40;1.77;;;1.23;;
12535;SDS011;6334;48.696;2.114;2022-09-16T15:45:12;2.00;;;1.47;;
12535;SDS011;6334;48.696;2.114;2022-09-16T15:47:49;5.00;;;1.80;;
12535;SDS011;6334;48.696;2.114;2022-09-16T15:50:24;1.70;;;1.60;;
12535;SDS011;6334;48.696;2.114;2022-09-16T15:53:03;2.67;;;1.47;;
12535;SDS011;6334;48.696;2.114;2022-09-16T15:55:39;1.73;;;1.63;;
12535;SDS011;6334;48.696;2.114;2022-09-16T16:03:36;1.20;;;1.10;;
12535;SDS011;6334;48.696;2.114;2022-09-16T16:06:06;1.87;;;1.57;;
12535;SDS011;6334;48.696;2.114;2022-09-16T16:08:37;2.93;;;1.33;;
12535;SDS011;6334;48.696;2.114;2022-09-16T16:11:11;1.73;;;1.63;;
12535;SDS011;6334;48.696;2.114;2022-09-16T16:13:40;1.30;;;1.20;;
12535;SDS011;6334;48.696;2.114;2022-09-16T16:16:10;1.93;;;1.77;;
12535;SDS011;6334;48.696;2.114;2022-09-16T16:18:41;1.27;;;1.17;;
12535;SDS011;6334;48.696;2.114;2022-09-16T16:21:12;0.70;;;0.70;;
12535;SDS011;6334;48.696;2.114;2022-09-16T16:23:41;1.10;;;1.10;;
12535;SDS011;6334;48.696;2.114;2022-09-16T16:26:12;2.50;;;1.90;;
12535;SDS011;6334;48.696;2.114;2022-09-16T16:28:42;1.80;;;1.27;;
12535;SDS011;6334;48.696;2.114;2022-09-16T16:31:14;1.30;;;1.30;;
12535;SDS011;6334;48.696;2.114;2022-09-16T16:33:43;1.30;;;1.20;;
12535;SDS011;6334;48.696;2.114;2022-09-16T16:36:14;2.13;;;1.27;;
12535;SDS011;6334;48.696;2.114;2022-09-16T16:38:44;1.43;;;1.30;;
12535;SDS011;6334;48.696;2.114;2022-09-16T16:41:19;1.37;;;1.27;;
12535;SDS011;6334;48.696;2.114;2022-09-16T16:43:49;2.07;;;1.20;;
12535;SDS011;6334;48.696;2.114;2022-09-16T16:46:20;1.27;;;1.10;;
12535;SDS011;6334;48.696;2.114;2022-09-16T16:48:51;0.93;;;0.93;;
12535;SDS011;6334;48.696;2.114;2022-09-16T16:51:22;1.10;;;1.10;;
12535;SDS011;6334;48.696;2.114;2022-09-16T16:53:52;3.10;;;1.50;;
12535;SDS011;6334;48.696;2.114;2022-09-16T16:56:23;2.30;;;1.53;;
12535;SDS011;6334;48.696;2.114;2022-09-16T16:58:53;1.70;;;1.20;;
12535;SDS011;6334;48.696;2.114;2022-09-16T17:01:24;2.93;;;1.33;;
12535;SDS011;6334;48.696;2.114;2022-09-16T17:03:54;4.43;;;1.33;;
12535;SDS011;6334;48.696;2.114;2022-09-16T17:06:25;4.07;;;1.60;;
12535;SDS011;6334;48.696;2.114;2022-09-16T17:08:55;1.03;;;1.03;;
12535;SDS011;6334;48.696;2.114;2022-09-16T17:11:26;1.40;;;0.97;;
12535;SDS011;6334;48.696;2.114;2022-09-16T17:13:59;0.97;;;0.90;;
12535;SDS011;6334;48.696;2.114;2022-09-16T17:16:28;0.97;;;0.97;;
12535;SDS011;6334;48.696;2.114;2022-09-16T17:18:59;0.87;;;0.80;;
12535;SDS011;6334;48.696;2.114;2022-09-16T17:21:31;2.13;;;1.27;;
12535;SDS011;6334;48.696;2.114;2022-09-16T17:24:00;0.87;;;0.87;;
12535;SDS011;6334;48.696;2.114;2022-09-16T17:26:30;1.63;;;1.10;;
12535;SDS011;6334;48.696;2.114;2022-09-16T17:29:00;1.73;;;0.87;;
12535;SDS011;6334;48.696;2.114;2022-09-16T17:31:31;3.00;;;1.30;;
12535;SDS011;6334;48.696;2.114;2022-09-16T17:34:02;1.17;;;1.00;;
12535;SDS011;6334;48.696;2.114;2022-09-16T17:36:33;1.83;;;1.00;;
12535;SDS011;6334;48.696;2.114;2022-09-16T17:39:06;0.90;;;0.90;;
12535;SDS011;6334;48.696;2.114;2022-09-16T17:41:33;1.93;;;1.23;;
12535;SDS011;6334;48.696;2.114;2022-09-16T17:44:06;2.73;;;1.20;;
12535;SDS011;6334;48.696;2.114;2022-09-16T17:46:34;1.10;;;1.10;;
12535;SDS011;6334;48.696;2.114;2022-09-16T17:49:06;1.63;;;1.23;;